Time;durP1;ratioP1;P1;durP2;ratioP2;P2;SDS_P1;SDS_P2;PMS_P1;PMS_P2;Temp;Humidity;BMP_temperature;BMP_pressure;BME280_temperature;BME280_humidity;BME280_pressure;Samples;Min_cycle;Max_cycle;Signal;HPM_P1;HPM_P2
2021/07/09 00:01:53;;;;;;;19.20;13.13;;;23.50;99.90;;;;;;4432849;28;658760;-69
2021/07/09 00:04:41;;;;;;;22.00;13.67;;;23.50;99.90;;;;;;4437265;28;659813;-69
2021/07/09 00:07:29;;;;;;;17.70;12.80;;;23.50;99.90;;;;;;4440871;28;658465;-69
2021/07/09 00:10:16;;;;;;;16.67;12.50;;;23.50;99.90;;;;;;4453483;28;660137;-69
2021/07/09 00:13:06;;;;;;;19.57;12.13;;;23.50;99.90;;;;;;4427808;28;658965;-69
2021/07/09 00:15:55;;;;;;;17.57;13.33;;;23.50;99.90;;;;;;4456518;28;658718;-69
2021/07/09 00:18:42;;;;;;;19.57;13.63;;;23.40;99.90;;;;;;4427223;28;659387;-70
2021/07/09 00:21:30;;;;;;;20.63;12.93;;;23.30;99.90;;;;;;4443369;28;658728;-70
2021/07/09 00:24:18;;;;;;;17.30;13.97;;;23.30;99.90;;;;;;4459579;28;658696;-69
2021/07/09 00:27:06;;;;;;;18.80;13.20;;;23.30;99.90;;;;;;4444033;28;658653;-69
2021/07/09 00:29:53;;;;;;;22.77;13.70;;;23.10;99.90;;;;;;4460024;28;658447;-69
2021/07/09 00:32:42;;;;;;;21.03;13.60;;;23.00;99.90;;;;;;4434159;28;658910;-69
2021/07/09 00:35:30;;;;;;;17.87;13.23;;;23.00;99.90;;;;;;4444325;28;658593;-69
2021/07/09 00:38:17;;;;;;;19.43;13.53;;;23.00;99.90;;;;;;4452875;28;659789;-70
2021/07/09 00:41:05;;;;;;;20.10;13.20;;;22.90;99.90;;;;;;4431503;28;658960;-69
2021/07/09 00:43:52;;;;;;;19.47;13.33;;;22.80;99.90;;;;;;4447239;28;659380;-69
2021/07/09 00:46:41;;;;;;;19.50;12.73;;;22.80;99.90;;;;;;4444503;28;658488;-69
2021/07/09 00:49:30;;;;;;;18.60;14.03;;;22.80;99.90;;;;;;4455558;28;658490;-69
2021/07/09 00:52:18;;;;;;;20.43;13.57;;;22.60;99.90;;;;;;4424760;28;660056;-69
2021/07/09 00:55:07;;;;;;;19.33;14.23;;;22.60;99.90;;;;;;4438023;28;658606;-70
2021/07/09 00:57:55;;;;;;;20.40;14.40;;;22.60;99.90;;;;;;4445246;28;658612;-70
2021/07/09 01:00:42;;;;;;;19.20;13.97;;;22.70;99.90;;;;;;4462715;28;659297;-69
2021/07/09 01:03:30;;;;;;;21.50;13.67;;;22.80;99.90;;;;;;4436070;28;658700;-69
2021/07/09 01:06:19;;;;;;;18.00;14.43;;;22.80;99.90;;;;;;4459943;28;659222;-69
2021/07/09 01:09:06;;;;;;;24.47;14.90;;;22.80;99.90;;;;;;4443373;28;658711;-70
2021/07/09 01:11:55;;;;;;;29.47;15.60;;;22.90;99.90;;;;;;4453902;28;659105;-70
2021/07/09 01:14:42;;;;;;;21.00;15.27;;;22.90;99.90;;;;;;4457982;28;658904;-69
2021/07/09 01:17:30;;;;;;;21.23;14.03;;;22.90;99.90;;;;;;4428454;28;659391;-69
2021/07/09 01:20:18;;;;;;;26.27;14.83;;;23.00;99.90;;;;;;4461483;28;659246;-69
2021/07/09 01:23:07;;;;;;;22.70;15.43;;;22.90;99.90;;;;;;4428833;28;658803;-69
2021/07/09 01:25:57;;;;;;;28.53;15.60;;;23.00;99.90;;;;;;4436921;28;658575;-70
2021/07/09 01:28:44;;;;;;;30.73;15.93;;;23.00;99.90;;;;;;4444419;28;659096;-70
2021/07/09 01:31:32;;;;;;;22.60;14.90;;;23.00;99.90;;;;;;4454439;28;659804;-70
2021/07/09 01:34:20;;;;;;;26.23;15.37;;;23.00;99.90;;;;;;4441537;28;658809;-70
2021/07/09 01:37:12;;;;;;;23.50;15.07;;;23.00;99.90;;;;;;4464526;28;659443;-70
2021/07/09 01:39:59;;;;;;;24.00;15.37;;;23.00;99.90;;;;;;4416224;28;659152;-70
2021/07/09 01:42:48;;;;;;;23.57;15.43;;;23.00;99.90;;;;;;4456960;28;658466;-70
2021/07/09 01:45:36;;;;;;;27.80;15.63;;;23.00;99.90;;;;;;4434260;28;658987;-69
2021/07/09 01:48:24;;;;;;;24.87;15.50;;;23.00;99.90;;;;;;4456185;28;659161;-70
2021/07/09 01:51:12;;;;;;;28.30;16.07;;;23.00;99.90;;;;;;4455602;28;659920;-69
2021/07/09 01:54:00;;;;;;;25.00;14.50;;;23.00;99.90;;;;;;4432366;28;658345;-70
2021/07/09 01:56:47;;;;;;;25.00;16.03;;;23.00;99.90;;;;;;4461609;28;659660;-69
2021/07/09 01:59:36;;;;;;;26.13;15.10;;;22.90;99.90;;;;;;4438829;28;658967;-69
2021/07/09 02:02:24;;;;;;;20.77;14.67;;;22.90;99.90;;;;;;4461666;28;659082;-69
2021/07/09 02:05:12;;;;;;;22.73;14.83;;;22.80;99.90;;;;;;4434494;28;658898;-69
2021/07/09 02:08:00;;;;;;;25.20;14.83;;;22.80;99.90;;;;;;4446159;28;658502;-69
2021/07/09 02:10:47;;;;;;;19.63;14.37;;;22.80;99.90;;;;;;4458599;28;659786;-69
2021/07/09 02:13:35;;;;;;;26.47;14.00;;;22.80;99.90;;;;;;4434272;28;659014;-69
2021/07/09 02:16:24;;;;;;;20.40;13.87;;;22.80;99.90;;;;;;4458111;28;659636;-70
2021/07/09 02:19:14;;;;;;;18.97;14.10;;;22.80;99.90;;;;;;4447467;28;660061;-69
2021/07/09 02:22:02;;;;;;;22.87;15.30;;;22.70;99.90;;;;;;4431249;28;659005;-70
2021/07/09 02:24:50;;;;;;;20.97;14.07;;;22.70;99.90;;;;;;4432554;28;658913;-70
2021/07/09 02:27:38;;;;;;;19.33;13.93;;;22.70;99.90;;;;;;4452635;28;658707;-69
2021/07/09 02:30:26;;;;;;;19.50;13.53;;;22.70;99.90;;;;;;4438359;28;658357;-69
2021/07/09 02:33:16;;;;;;;26.43;14.00;;;22.60;99.90;;;;;;4459417;28;659628;-70
2021/07/09 02:36:04;;;;;;;19.70;13.93;;;22.70;99.90;;;;;;4466676;28;658620;-69
2021/07/09 02:38:51;;;;;;;18.37;13.77;;;22.60;99.90;;;;;;4443157;28;660305;-69
2021/07/09 02:41:39;;;;;;;24.60;13.40;;;22.60;99.90;;;;;;4456080;28;658742;-70
2021/07/09 02:44:27;;;;;;;25.00;14.77;;;22.60;99.90;;;;;;4433716;28;659383;-69
2021/07/09 02:47:14;;;;;;;21.10;13.87;;;22.50;99.90;;;;;;4442856;28;658638;-70
2021/07/09 02:50:05;;;;;;;22.43;13.67;;;22.40;99.90;;;;;;4461661;28;660660;-69
2021/07/09 02:52:52;;;;;;;20.07;14.40;;;22.50;99.90;;;;;;4446629;28;658590;-70
2021/07/09 02:55:40;;;;;;;19.27;13.47;;;22.40;99.90;;;;;;4446086;28;658649;-70
2021/07/09 02:58:27;;;;;;;21.90;13.17;;;22.40;99.90;;;;;;4449825;28;658726;-70
2021/07/09 03:01:15;;;;;;;23.47;14.00;;;22.50;99.90;;;;;;4438499;28;658756;-70
2021/07/09 03:04:02;;;;;;;22.40;14.57;;;22.50;99.90;;;;;;4457477;28;659807;-70
2021/07/09 03:06:51;;;;;;;20.40;13.87;;;22.40;99.90;;;;;;4437980;28;659072;-70
2021/07/09 03:09:39;;;;;;;19.63;13.73;;;22.30;99.90;;;;;;4454297;28;658983;-70
2021/07/09 03:12:28;;;;;;;21.70;13.53;;;22.30;99.90;;;;;;4464841;28;659858;-70
2021/07/09 03:15:16;;;;;;;20.07;14.10;;;22.20;99.90;;;;;;4443373;28;658603;-70
2021/07/09 03:18:03;;;;;;;20.20;14.13;;;22.20;99.90;;;;;;4462843;28;659044;-70
2021/07/09 03:20:52;;;;;;;16.90;14.10;;;22.10;99.90;;;;;;4435171;28;659575;-70
2021/07/09 03:23:41;;;;;;;20.60;14.10;;;22.10;99.90;;;;;;4436613;28;658645;-70
2021/07/09 03:26:29;;;;;;;20.43;14.77;;;22.10;99.90;;;;;;4453305;28;658658;-70
2021/07/09 03:29:17;;;;;;;17.37;14.30;;;22.10;99.90;;;;;;4463326;28;659164;-70
2021/07/09 03:32:05;;;;;;;17.43;14.00;;;22.10;99.90;;;;;;4444914;28;659006;-70
2021/07/09 03:34:53;;;;;;;18.63;13.93;;;22.10;99.90;;;;;;4460588;28;658537;-69
2021/07/09 03:37:40;;;;;;;18.20;13.83;;;22.10;99.90;;;;;;4437600;28;658297;-70
2021/07/09 03:40:29;;;;;;;19.43;13.83;;;22.10;99.90;;;;;;4458199;28;659813;-70
2021/07/09 03:43:17;;;;;;;18.10;14.17;;;22.00;99.90;;;;;;4445024;28;659633;-70
2021/07/09 03:46:04;;;;;;;19.42;14.30;;;22.00;99.90;;;;;;4429197;28;658918;-70
2021/07/09 03:48:52;;;;;;;21.10;14.27;;;22.00;99.90;;;;;;4464153;28;659266;-70
2021/07/09 03:51:40;;;;;;;20.33;14.80;;;22.00;99.90;;;;;;4434343;28;658896;-70
2021/07/09 03:54:27;;;;;;;23.03;13.93;;;22.10;99.90;;;;;;4448608;28;659069;-69
2021/07/09 03:57:16;;;;;;;21.30;14.43;;;22.00;99.90;;;;;;4427482;28;659072;-70
2021/07/09 04:00:04;;;;;;;23.57;15.43;;;22.10;99.90;;;;;;4457042;28;658618;-70
2021/07/09 04:02:53;;;;;;;19.43;14.37;;;22.10;99.90;;;;;;4435714;28;659624;-70
2021/07/09 04:05:40;;;;;;;22.67;13.90;;;22.20;99.90;;;;;;4427428;28;658603;-70
2021/07/09 04:08:28;;;;;;;23.63;14.50;;;22.20;99.90;;;;;;4456533;28;659349;-70
2021/07/09 04:11:15;;;;;;;21.87;14.30;;;22.40;99.90;;;;;;4429473;28;659008;-70
2021/07/09 04:14:04;;;;;;;21.70;14.37;;;22.50;99.90;;;;;;4451378;28;659382;-70
2021/07/09 04:16:52;;;;;;;19.23;14.03;;;22.60;99.90;;;;;;4423312;28;659338;-70
2021/07/09 04:19:39;;;;;;;20.40;13.60;;;22.80;99.90;;;;;;4440682;28;658764;-70
2021/07/09 04:22:27;;;;;;;19.63;13.77;;;22.90;99.90;;;;;;4467997;28;659759;-69
2021/07/09 04:25:15;;;;;;;20.17;14.23;;;23.10;99.90;;;;;;4439788;28;659089;-70
2021/07/09 04:28:02;;;;;;;18.97;13.67;;;23.20;99.90;;;;;;4456781;28;659017;-70
2021/07/09 04:30:54;;;;;;;18.40;13.73;;;23.20;99.90;;;;;;4437734;28;658825;-70
2021/07/09 04:33:45;;;;;;;18.67;13.27;;;23.40;99.90;;;;;;4426630;28;659118;-70
2021/07/09 04:36:32;;;;;;;29.73;14.20;;;23.50;99.90;;;;;;4430635;28;660167;-70
2021/07/09 04:39:20;;;;;;;19.97;13.43;;;23.50;99.90;;;;;;4435670;28;659041;-70
2021/07/09 04:42:08;;;;;;;19.17;12.97;;;23.60;99.90;;;;;;4457489;28;658681;-70
2021/07/09 04:44:56;;;;;;;21.47;12.67;;;23.70;99.90;;;;;;4435872;28;658530;-69
2021/07/09 04:47:45;;;;;;;18.67;13.43;;;23.80;99.90;;;;;;4463849;28;658285;-70
2021/07/09 04:50:35;;;;;;;15.77;12.23;;;23.80;99.90;;;;;;4440160;28;659287;-69
2021/07/09 04:53:22;;;;;;;18.00;12.60;;;24.00;99.90;;;;;;4435873;28;659328;-70
2021/07/09 04:56:10;;;;;;;15.73;12.27;;;24.10;99.90;;;;;;4434871;28;659115;-70
2021/07/09 04:58:58;;;;;;;16.73;12.07;;;24.20;99.90;;;;;;4462742;28;659665;-70
2021/07/09 05:01:45;;;;;;;19.67;13.17;;;24.40;99.90;;;;;;4433076;28;658986;-70
2021/07/09 05:04:34;;;;;;;17.40;11.97;;;24.50;99.90;;;;;;4462465;28;658756;-70
2021/07/09 05:07:22;;;;;;;20.23;12.77;;;24.60;99.90;;;;;;4428545;28;659080;-70
2021/07/09 05:10:10;;;;;;;15.87;12.60;;;24.70;99.90;;;;;;4428096;28;659541;-70
2021/07/09 05:12:58;;;;;;;16.50;11.77;;;24.90;99.90;;;;;;4455387;28;659125;-70
2021/07/09 05:15:46;;;;;;;24.25;12.32;;;24.90;99.90;;;;;;4435183;28;658461;-70
2021/07/09 05:18:33;;;;;;;18.45;11.95;;;25.10;99.90;;;;;;4452750;28;658293;-69
2021/07/09 05:21:22;;;;;;;15.35;11.95;;;25.20;99.90;;;;;;4428821;28;659148;-70
2021/07/09 05:24:12;;;;;;;20.30;11.93;;;25.30;99.90;;;;;;4440344;28;658738;-70
2021/07/09 05:26:59;;;;;;;14.45;11.20;;;25.40;99.90;;;;;;4445424;28;659000;-70
2021/07/09 05:29:47;;;;;;;16.52;11.32;;;25.60;99.90;;;;;;4467300;28;659568;-69
2021/07/09 05:32:35;;;;;;;15.25;11.75;;;25.70;99.90;;;;;;4438807;28;658754;-70
2021/07/09 05:35:23;;;;;;;16.73;11.80;;;25.80;99.90;;;;;;4458100;28;660180;-69
2021/07/09 05:38:12;;;;;;;17.02;11.48;;;25.90;99.90;;;;;;4436115;28;658685;-69
2021/07/09 05:41:00;;;;;;;16.33;12.20;;;26.00;99.90;;;;;;4442112;28;658716;-69
2021/07/09 05:43:47;;;;;;;17.50;12.40;;;26.30;99.90;;;;;;4457516;28;659744;-69
2021/07/09 05:46:35;;;;;;;21.10;11.80;;;26.40;99.90;;;;;;4432490;28;659042;-69
2021/07/09 05:49:22;;;;;;;18.02;11.25;;;26.60;99.90;;;;;;4446907;28;659485;-70
2021/07/09 05:52:10;;;;;;;15.13;11.45;;;26.70;99.90;;;;;;4437519;28;658934;-70
2021/07/09 05:54:59;;;;;;;15.93;11.52;;;26.90;99.90;;;;;;4464240;28;658824;-69
2021/07/09 05:57:47;;;;;;;16.65;11.98;;;27.00;99.90;;;;;;4440713;28;659349;-69
2021/07/09 06:00:35;;;;;;;13.68;10.60;;;27.00;99.90;;;;;;4444443;28;658953;-70
2021/07/09 06:03:23;;;;;;;17.27;11.55;;;26.90;99.90;;;;;;4463414;28;658853;-70
2021/07/09 06:06:10;;;;;;;20.30;12.85;;;26.60;99.90;;;;;;4441563;28;660247;-70
2021/07/09 06:08:58;;;;;;;17.23;13.13;;;26.40;99.90;;;;;;4461941;28;658671;-70
2021/07/09 06:11:47;;;;;;;20.88;13.57;;;26.20;99.90;;;;;;4438378;28;658803;-69
2021/07/09 06:14:35;;;;;;;17.88;13.70;;;26.00;99.90;;;;;;4425848;28;658741;-70
2021/07/09 06:17:23;;;;;;;17.33;13.98;;;26.10;99.90;;;;;;4447137;28;659234;-70
2021/07/09 06:20:11;;;;;;;20.25;13.85;;;26.10;99.90;;;;;;4429850;28;659056;-70
2021/07/09 06:22:59;;;;;;;19.73;13.80;;;26.20;99.90;;;;;;4440790;28;658962;-69
2021/07/09 06:25:46;;;;;;;26.10;14.73;;;26.40;99.90;;;;;;4426436;28;659514;-69
2021/07/09 06:28:35;;;;;;;25.30;16.13;;;26.40;99.90;;;;;;4410470;28;659087;-69
2021/07/09 06:31:23;;;;;;;21.15;15.65;;;26.20;99.90;;;;;;4391338;28;659460;-69
2021/07/09 06:34:11;;;;;;;29.02;17.85;;;26.20;99.90;;;;;;4402366;28;658922;-70
2021/07/09 06:36:58;;;;;;;25.23;16.83;;;26.30;99.90;;;;;;4448795;28;658847;-70
2021/07/09 06:39:46;;;;;;;29.60;16.92;;;26.40;99.90;;;;;;4425006;28;658780;-69
2021/07/09 06:42:33;;;;;;;27.80;17.83;;;26.50;99.90;;;;;;4423242;28;658944;-69
2021/07/09 06:45:23;;;;;;;25.08;16.83;;;26.60;99.90;;;;;;4419408;28;659438;-69
2021/07/09 06:48:10;;;;;;;25.40;15.88;;;26.70;99.90;;;;;;4431012;28;658823;-69
2021/07/09 06:50:58;;;;;;;28.20;16.42;;;26.60;99.90;;;;;;4447938;28;658656;-69
2021/07/09 06:53:47;;;;;;;27.20;16.92;;;26.70;99.90;;;;;;4430236;28;659540;-69
2021/07/09 06:56:35;;;;;;;26.23;18.52;;;26.80;99.90;;;;;;4421911;28;658586;-70
2021/07/09 06:59:23;;;;;;;26.50;18.02;;;27.10;99.90;;;;;;4439873;28;659528;-69
2021/07/09 07:02:13;;;;;;;26.80;18.33;;;27.20;99.90;;;;;;4428909;28;658485;-69
2021/07/09 07:05:01;;;;;;;31.52;18.17;;;27.20;99.90;;;;;;4428439;28;658214;-70
2021/07/09 07:07:49;;;;;;;25.80;18.42;;;27.20;99.90;;;;;;4444872;28;658206;-69
2021/07/09 07:10:36;;;;;;;31.02;18.80;;;27.20;99.90;;;;;;4426492;28;659805;-69
2021/07/09 07:13:24;;;;;;;29.45;18.90;;;27.20;99.90;;;;;;4461663;28;658437;-68
2021/07/09 07:16:12;;;;;;;26.27;18.95;;;27.10;99.90;;;;;;4431943;28;659594;-70
2021/07/09 07:19:01;;;;;;;26.63;18.48;;;27.20;99.90;;;;;;4444219;28;658683;-69
2021/07/09 07:21:48;;;;;;;26.67;17.58;;;27.40;99.90;;;;;;4463623;28;659076;-69
2021/07/09 07:24:36;;;;;;;31.52;17.58;;;27.50;99.90;;;;;;4434867;28;659734;-69
2021/07/09 07:27:27;;;;;;;24.73;17.70;;;27.60;99.90;;;;;;4465102;27;658684;-69
2021/07/09 07:30:15;;;;;;;27.15;17.08;;;27.70;99.90;;;;;;4444570;28;658521;-69
2021/07/09 07:33:03;;;;;;;25.33;17.02;;;27.70;99.90;;;;;;4453024;28;658535;-69
2021/07/09 07:35:52;;;;;;;33.97;17.08;;;27.90;99.90;;;;;;4438565;28;659288;-69
2021/07/09 07:38:40;;;;;;;27.67;17.17;;;28.10;99.90;;;;;;4443999;28;658761;-69
2021/07/09 07:41:27;;;;;;;29.40;16.25;;;28.30;99.90;;;;;;4464697;28;658704;-69
2021/07/09 07:44:15;;;;;;;24.00;15.95;;;28.40;99.90;;;;;;4438072;28;659337;-69
2021/07/09 07:47:03;;;;;;;27.17;16.00;;;28.50;99.90;;;;;;4463026;28;659326;-69
2021/07/09 07:49:50;;;;;;;25.45;15.80;;;28.60;99.90;;;;;;4445252;28;658648;-69
2021/07/09 07:52:40;;;;;;;22.20;14.63;;;28.70;99.90;;;;;;4459967;28;659191;-68
2021/07/09 07:55:28;;;;;;;20.65;15.30;;;28.90;99.90;;;;;;4439454;28;659416;-69
2021/07/09 07:58:15;;;;;;;20.77;14.13;;;29.00;99.90;;;;;;4432346;28;658835;-69
2021/07/09 08:01:03;;;;;;;19.02;14.38;;;29.20;99.90;;;;;;4463895;28;659168;-69
2021/07/09 08:03:50;;;;;;;23.73;15.73;;;29.20;99.90;;;;;;4445225;28;658884;-69
2021/07/09 08:06:38;;;;;;;20.92;14.82;;;29.60;99.90;;;;;;4463594;28;658657;-69
2021/07/09 08:09:27;;;;;;;20.75;14.90;;;29.70;99.90;;;;;;4445253;28;658552;-69
2021/07/09 08:12:16;;;;;;;24.55;14.55;;;29.80;99.90;;;;;;4437774;28;658420;-70
2021/07/09 08:15:04;;;;;;;25.90;14.07;;;29.90;99.90;;;;;;4462532;28;658367;-69
2021/07/09 08:17:52;;;;;;;34.80;15.40;;;30.00;99.90;;;;;;4440376;28;659287;-69
2021/07/09 08:20:40;;;;;;;28.08;15.43;;;29.90;99.90;;;;;;4444379;28;658664;-69
2021/07/09 08:23:28;;;;;;;21.02;14.75;;;30.20;99.90;;;;;;4458418;28;658644;-69
2021/07/09 08:26:18;;;;;;;21.93;14.67;;;30.40;99.90;;;;;;4437918;28;659124;-69
2021/07/09 08:29:05;;;;;;;18.23;14.18;;;30.60;99.90;;;;;;4435784;28;659271;-69
2021/07/09 08:31:53;;;;;;;18.38;14.63;;;30.60;99.90;;;;;;4464182;28;658883;-69
2021/07/09 08:34:41;;;;;;;20.03;14.20;;;30.90;99.90;;;;;;4440897;27;658617;-69
2021/07/09 08:37:28;;;;;;;16.95;13.85;;;31.10;99.90;;;;;;4462624;28;658519;-69
2021/07/09 08:40:16;;;;;;;23.60;13.93;;;31.10;99.90;;;;;;4444500;28;659128;-69
2021/07/09 08:43:06;;;;;;;18.10;12.55;;;31.10;99.90;;;;;;4446888;28;659283;-69
2021/07/09 08:45:54;;;;;;;15.82;13.23;;;31.30;99.90;;;;;;4455844;28;658965;-68
2021/07/09 08:48:41;;;;;;;23.38;13.32;;;31.50;99.90;;;;;;4444233;28;659882;-69
2021/07/09 08:51:30;;;;;;;17.02;12.50;;;31.60;99.90;;;;;;4452589;28;658801;-69
2021/07/09 08:54:18;;;;;;;18.92;12.02;;;31.80;99.90;;;;;;4477818;27;658765;-68
2021/07/09 08:57:06;;;;;;;20.38;13.30;;;32.10;99.90;;;;;;4440235;28;659433;-69
2021/07/09 08:59:55;;;;;;;15.60;12.93;;;32.10;99.90;;;;;;4464087;28;658378;-69
2021/07/09 09:02:46;;;;;;;15.57;12.37;;;32.40;99.90;;;;;;4438779;28;658626;-69
2021/07/09 09:05:34;;;;;;;20.73;12.07;;;32.40;99.90;;;;;;4434196;28;658521;-69
2021/07/09 09:08:22;;;;;;;16.08;12.02;;;32.40;99.90;;;;;;4442314;27;659112;-68
2021/07/09 09:11:10;;;;;;;17.70;11.85;;;32.40;99.90;;;;;;4441982;28;658680;-69
2021/07/09 09:14:00;;;;;;;14.40;11.57;;;32.50;99.90;;;;;;4462370;28;658436;-69
2021/07/09 09:16:52;;;;;;;16.23;11.73;;;32.40;99.90;;;;;;4478235;28;659573;-69
2021/07/09 09:19:40;;;;;;;16.63;11.93;;;32.50;99.90;;;;;;4421265;28;658878;-68
2021/07/09 09:22:28;;;;;;;14.23;11.60;;;32.80;99.90;;;;;;4482252;28;659524;-69
2021/07/09 09:25:16;;;;;;;14.00;12.03;;;32.90;99.90;;;;;;4458442;28;658439;-69
2021/07/09 09:28:06;;;;;;;18.65;12.10;;;32.90;99.90;;;;;;4483304;28;659138;-69
2021/07/09 09:31:00;;;;;;;15.45;11.40;;;33.10;99.90;;;;;;4503877;28;658638;-69
2021/07/09 09:33:49;;;;;;;13.75;12.20;;;33.10;99.90;;;;;;4458599;28;659201;-69
2021/07/09 09:36:40;;;;;;;14.10;12.07;;;32.70;99.90;;;;;;4419491;28;659264;-69
2021/07/09 09:39:37;;;;;;;19.67;12.80;;;32.40;99.90;;;;;;4449145;28;658648;-69
2021/07/09 09:42:38;;;;;;;14.88;12.68;;;32.30;99.90;;;;;;4451696;28;658636;-69
2021/07/09 09:45:26;;;;;;;16.48;12.00;;;32.20;99.90;;;;;;4466622;28;658845;-69
2021/07/09 09:48:15;;;;;;;17.67;12.48;;;32.10;99.90;;;;;;4453533;28;658279;-70
2021/07/09 09:51:05;;;;;;;17.83;12.77;;;32.10;99.90;;;;;;4463476;28;659176;-69
2021/07/09 09:53:54;;;;;;;22.43;12.47;;;32.10;99.90;;;;;;4433640;28;658719;-69
2021/07/09 09:56:43;;;;;;;17.13;11.85;;;32.20;99.90;;;;;;4436901;28;659498;-69
2021/07/09 09:59:32;;;;;;;18.00;11.40;;;31.90;99.90;;;;;;4447178;28;659807;-69
2021/07/09 10:02:20;;;;;;;20.27;11.45;;;31.70;99.90;;;;;;4446780;28;659045;-69
2021/07/09 10:05:08;;;;;;;16.88;12.05;;;31.50;99.90;;;;;;4466641;28;659946;-68
2021/07/09 10:07:57;;;;;;;14.52;11.77;;;31.50;99.90;;;;;;4432875;28;658028;-68
2021/07/09 10:10:45;;;;;;;14.43;11.93;;;31.30;99.90;;;;;;4446841;28;659138;-69
2021/07/09 10:13:32;;;;;;;20.95;12.70;;;31.20;99.90;;;;;;4458181;28;659302;-68
2021/07/09 10:16:21;;;;;;;16.00;11.82;;;31.00;99.90;;;;;;4446833;28;658853;-69
2021/07/09 10:19:09;;;;;;;22.73;13.27;;;30.70;99.90;;;;;;4463855;28;658555;-68
2021/07/09 10:21:57;;;;;;;16.27;12.37;;;30.70;99.90;;;;;;4445834;28;659212;-68
2021/07/09 10:24:47;;;;;;;17.77;12.48;;;30.50;99.90;;;;;;4451418;28;658909;-69
2021/07/09 10:27:35;;;;;;;15.98;12.88;;;30.20;99.90;;;;;;4442370;28;659575;-68
2021/07/09 10:30:22;;;;;;;16.15;12.65;;;29.70;99.90;;;;;;4469612;28;659816;-68
2021/07/09 10:33:31;;;;;;;17.90;12.95;;;29.20;99.90;;;;;;4446626;28;660152;-68
2021/07/09 10:36:29;;;;;;;14.65;12.90;;;28.80;99.90;;;;;;4445569;28;658554;-67
2021/07/09 10:39:31;;;;;;;16.65;13.70;;;28.50;99.90;;;;;;4418886;28;659509;-69
2021/07/09 10:42:29;;;;;;;24.10;13.83;;;28.40;99.90;;;;;;4435438;28;658565;-67
2021/07/09 10:45:22;;;;;;;22.65;14.80;;;28.30;99.90;;;;;;4442369;28;658696;-68
2021/07/09 10:48:10;;;;;;;20.00;14.63;;;28.10;99.90;;;;;;4420290;28;658708;-69
2021/07/09 10:50:58;;;;;;;22.08;14.40;;;27.80;99.90;;;;;;4466326;28;659449;-66
2021/07/09 10:53:46;;;;;;;26.10;15.43;;;27.60;99.90;;;;;;4428766;28;658477;-66
2021/07/09 10:56:34;;;;;;;29.08;15.68;;;27.20;99.90;;;;;;4464727;28;658774;-67
2021/07/09 10:59:23;;;;;;;30.67;16.58;;;26.90;99.90;;;;;;4440338;28;659413;-67
2021/07/09 11:02:10;;;;;;;26.63;17.02;;;26.50;99.90;;;;;;4438206;28;658851;-67
2021/07/09 11:04:58;;;;;;;31.75;17.90;;;26.40;99.90;;;;;;4464799;27;658992;-66
2021/07/09 11:07:46;;;;;;;21.20;7.75;;;26.00;99.90;;;;;;4444286;28;658764;-66
2021/07/09 11:10:55;;;;;;;21.30;8.85;;;25.30;99.90;;;;;;4466934;28;657522;-66
2021/07/09 11:13:53;;;;;;;27.80;10.50;;;25.00;99.90;;;;;;4434408;28;657427;-67
2021/07/09 11:16:43;;;;;;;34.83;10.57;;;24.80;99.90;;;;;;4416078;28;659277;-67
2021/07/09 11:19:31;;;;;;;27.45;10.55;;;24.60;99.90;;;;;;4445557;28;658467;-69
2021/07/09 11:22:19;;;;;;;23.30;12.02;;;24.40;99.90;;;;;;4454776;28;658374;-70
2021/07/09 11:25:07;;;;;;;19.58;13.68;;;24.40;99.90;;;;;;4440237;28;659458;-68
2021/07/09 11:27:54;;;;;;;21.38;14.98;;;24.50;99.90;;;;;;4445463;28;658365;-69
2021/07/09 11:30:42;;;;;;;20.63;14.32;;;24.70;99.90;;;;;;4465057;28;659545;-68
2021/07/09 11:33:31;;;;;;;27.33;16.25;;;24.80;99.90;;;;;;4437354;28;659285;-69
2021/07/09 11:36:20;;;;;;;23.50;16.85;;;24.90;99.90;;;;;;4464886;28;659003;-68
2021/07/09 11:39:08;;;;;;;27.53;15.80;;;25.00;99.90;;;;;;4441051;28;659113;-68
2021/07/09 11:41:58;;;;;;;21.35;15.05;;;25.20;99.90;;;;;;4442103;28;660349;-68
2021/07/09 11:44:47;;;;;;;19.70;14.70;;;25.40;99.90;;;;;;4439619;28;658303;-68
2021/07/09 11:47:35;;;;;;;19.85;14.10;;;25.60;99.90;;;;;;4445424;28;658641;-69
2021/07/09 11:50:24;;;;;;;19.48;14.00;;;25.80;99.90;;;;;;4455225;28;658748;-68
2021/07/09 11:53:15;;;;;;;18.65;14.70;;;26.10;99.90;;;;;;4438452;28;659255;-68
2021/07/09 11:56:15;;;;;;;23.85;13.70;;;26.10;99.90;;;;;;4441288;28;658646;-68
2021/07/09 11:59:13;;;;;;;20.58;14.43;;;26.30;99.90;;;;;;4440647;28;659613;-68
2021/07/09 12:02:03;;;;;;;17.92;14.13;;;26.30;99.90;;;;;;4431503;28;658762;-68
2021/07/09 12:04:51;;;;;;;18.10;13.93;;;26.30;99.90;;;;;;4445752;28;658545;-68
2021/07/09 12:07:41;;;;;;;22.52;13.35;;;26.00;99.90;;;;;;4460136;28;658760;-69
2021/07/09 12:10:29;;;;;;;23.05;14.50;;;25.70;99.90;;;;;;4464624;28;659248;-67
2021/07/09 12:13:17;;;;;;;20.25;13.05;;;25.70;99.90;;;;;;4439626;28;659922;-67
2021/07/09 12:16:06;;;;;;;23.67;14.38;;;25.50;99.90;;;;;;4444733;28;659127;-69
2021/07/09 12:18:53;;;;;;;17.38;13.85;;;25.30;99.90;;;;;;4463494;28;658213;-68
2021/07/09 12:21:44;;;;;;;21.23;13.38;;;25.30;99.90;;;;;;4442102;28;659084;-69
2021/07/09 12:24:33;;;;;;;19.08;13.15;;;25.30;99.90;;;;;;4438600;28;659404;-69
2021/07/09 12:27:20;;;;;;;21.13;13.65;;;25.20;99.90;;;;;;4441049;28;659045;-69
2021/07/09 12:30:10;;;;;;;17.52;12.88;;;25.20;99.90;;;;;;4457856;28;659029;-69
2021/07/09 12:32:59;;;;;;;20.42;12.23;;;24.90;99.90;;;;;;4439166;28;658601;-69
2021/07/09 12:35:47;;;;;;;16.05;12.32;;;24.90;99.90;;;;;;4444096;28;659172;-69
2021/07/09 12:38:35;;;;;;;14.02;10.45;;;24.70;99.90;;;;;;4455677;28;659100;-70
2021/07/09 12:41:31;;;;;;;13.95;10.25;;;24.20;99.90;;;;;;4455420;28;659682;-70
2021/07/09 12:44:18;;;;;;;14.50;9.40;;;23.90;99.90;;;;;;4437085;28;658779;-69
2021/07/09 12:47:06;;;;;;;11.83;8.70;;;23.80;99.90;;;;;;4438242;28;657999;-69
2021/07/09 12:50:15;;;;;;;17.53;10.23;;;23.60;99.90;;;;;;4463713;28;657954;-69
2021/07/09 12:53:11;;;;;;;15.73;10.30;;;23.50;99.90;;;;;;4440060;28;659209;-69
2021/07/09 12:55:59;;;;;;;18.33;9.20;;;23.40;99.90;;;;;;4436113;28;658719;-71
2021/07/09 12:58:49;;;;;;;15.80;10.37;;;23.40;99.90;;;;;;4468764;28;658422;-69
2021/07/09 13:01:38;;;;;;;13.10;8.97;;;23.30;99.90;;;;;;4438987;28;659557;-70
2021/07/09 13:04:26;;;;;;;12.97;8.40;;;23.10;99.90;;;;;;4438634;28;658006;-70
2021/07/09 13:07:14;;;;;;;11.03;7.87;;;22.90;99.90;;;;;;4464891;28;657203;-70
2021/07/09 13:10:02;;;;;;;12.67;9.10;;;22.90;99.90;;;;;;4442390;28;658206;-70
2021/07/09 13:12:50;;;;;;;13.07;8.70;;;23.00;99.90;;;;;;4439890;28;657865;-70
2021/07/09 13:15:39;;;;;;;11.70;7.93;;;23.10;99.90;;;;;;4463866;28;657645;-70
2021/07/09 13:18:27;;;;;;;14.57;8.10;;;23.10;99.90;;;;;;4442084;28;658115;-70
2021/07/09 13:21:15;;;;;;;13.63;8.83;;;23.20;99.90;;;;;;4445107;28;657765;-70
2021/07/09 13:24:07;;;;;;;14.17;8.43;;;23.30;99.90;;;;;;4464181;28;658016;-70
2021/07/09 13:26:54;;;;;;;12.30;8.67;;;23.20;99.90;;;;;;4418150;28;657793;-71
2021/07/09 13:29:42;;;;;;;18.47;9.20;;;23.20;99.90;;;;;;4464586;28;657730;-70
2021/07/09 13:32:34;;;;;;;15.00;8.60;;;23.10;99.90;;;;;;4448476;28;657748;-70
2021/07/09 13:35:22;;;;;;;13.97;8.07;;;23.10;99.90;;;;;;4443487;28;657429;-70
2021/07/09 13:38:11;;;;;;;13.90;8.57;;;23.00;99.90;;;;;;4448210;28;657852;-70
2021/07/09 13:40:59;;;;;;;13.53;9.10;;;23.00;99.90;;;;;;4467188;28;657370;-70
2021/07/09 13:43:48;;;;;;;12.00;9.13;;;23.30;99.90;;;;;;4445177;28;658375;-72
2021/07/09 13:46:35;;;;;;;12.77;8.73;;;23.70;99.90;;;;;;4447992;28;657087;-70
2021/07/09 13:49:24;;;;;;;10.83;7.27;;;23.80;99.90;;;;;;4467398;28;658501;-70
2021/07/09 13:52:12;;;;;;;14.17;8.27;;;24.00;99.90;;;;;;4444288;28;657799;-70
2021/07/09 13:55:01;;;;;;;11.60;7.73;;;24.60;99.90;;;;;;4431049;28;658002;-70
2021/07/09 13:57:48;;;;;;;16.08;8.20;;;25.10;99.90;;;;;;4466196;27;657290;-70
2021/07/09 14:00:36;;;;;;;12.35;7.00;;;25.80;99.90;;;;;;4440846;28;658082;-70
2021/07/09 14:03:24;;;;;;;11.55;7.35;;;26.80;99.90;;;;;;4468340;28;657744;-70
2021/07/09 14:06:13;;;;;;;10.88;7.13;;;27.60;99.90;;;;;;4448831;28;658168;-70